Time;durP1;ratioP1;P1;durP2;ratioP2;P2;SDS_P1;SDS_P2;PMS_P1;PMS_P2;Temp;Humidity;BMP_temperature;BMP_pressure;BME280_temperature;BME280_humidity;BME280_pressure;Samples;Min_cycle;Max_cycle;Signal;HPM_P1;HPM_P2
2022/07/28 05:51:40;;;;;;;;;3.00;3.00;;;;;21.07;40.28;101290.69;2653369;23;44857;-86
2022/07/28 05:52:51;;;;;;;;;3.50;3.50;;;;;21.10;40.15;101293.16;2393756;28;45469;-86
2022/07/28 05:54:01;;;;;;;;;3.50;3.00;;;;;21.11;40.06;101288.69;2395655;28;45607;-85
2022/07/28 05:55:12;;;;;;;;;5.00;4.25;;;;;21.12;40.12;101279.69;2391830;28;45518;-86
2022/07/28 05:56:23;;;;;;;;;4.25;3.25;;;;;21.16;39.77;101283.00;2389479;28;44820;-85
2022/07/28 05:57:34;;;;;;;;;4.00;4.00;;;;;21.18;41.31;101289.97;2394617;28;45411;-87
2022/07/28 05:58:44;;;;;;;;;5.00;5.00;;;;;21.22;41.73;101290.59;2391953;28;45746;-87
2022/07/28 05:59:54;;;;;;;;;3.25;3.00;;;;;21.24;40.63;101291.31;2383200;28;48187;-88
2022/07/28 06:01:05;;;;;;;;;3.00;2.75;;;;;21.25;40.39;101291.25;2384965;28;45367;-86
2022/07/28 06:02:15;;;;;;;;;5.25;4.50;;;;;21.23;40.03;101286.97;2397542;28;45615;-86
2022/07/28 06:03:27;;;;;;;;;4.25;4.25;;;;;21.23;39.95;101298.50;2402284;28;45358;-88
2022/07/28 06:04:37;;;;;;;;;5.50;4.00;;;;;21.23;40.04;101292.31;2400138;28;48868;-86
2022/07/28 06:05:49;;;;;;;;;6.00;5.00;;;;;21.24;39.90;101291.31;2387728;28;44811;-87
2022/07/28 06:06:59;;;;;;;;;5.00;4.50;;;;;21.25;39.57;101293.06;2384513;28;48085;-88
2022/07/28 06:08:10;;;;;;;;;5.25;5.25;;;;;21.24;39.96;101294.88;2390510;28;44641;-87
2022/07/28 06:09:20;;;;;;;;;4.25;4.25;;;;;21.25;40.52;101299.25;2401152;28;47089;-86
2022/07/28 06:10:57;;;;;;;;;5.50;2.50;;;;;21.25;40.04;101296.59;2397292;28;45352;-88
2022/07/28 06:12:01;;;;;;;;;4.75;4.00;;;;;21.28;40.24;101297.31;2392969;28;46427;-86
2022/07/28 06:13:13;;;;;;;;;5.00;4.75;;;;;21.29;39.69;101299.03;2393787;28;44805;-88
2022/07/28 06:14:23;;;;;;;;;5.00;5.00;;;;;21.27;40.05;101296.47;2391803;28;47408;-88
2022/07/28 06:15:33;;;;;;;;;3.25;2.00;;;;;21.28;39.97;101298.19;2383831;28;45222;-89
2022/07/28 06:16:44;;;;;;;;;5.50;4.00;;;;;21.28;40.21;101297.31;2385789;28;46421;-87
2022/07/28 06:17:54;;;;;;;;;4.25;3.25;;;;;21.27;39.86;101301.81;2392918;28;45206;-89
2022/07/28 06:19:04;;;;;;;;;5.25;3.00;;;;;21.27;39.74;101299.13;2396877;28;45669;-88
2022/07/28 06:20:15;;;;;;;;;7.00;3.25;;;;;21.25;39.66;101301.06;2401098;28;44738;-88
2022/07/28 06:21:26;;;;;;;;;5.00;5.00;;;;;21.23;40.27;101297.66;2398419;28;45387;-88
2022/07/28 06:22:50;;;;;;;;;5.00;4.00;;;;;21.27;40.01;101304.50;2397420;28;45419;-88
2022/07/28 06:24:00;;;;;;;;;5.00;5.00;;;;;21.25;39.96;101301.94;2394335;28;45484;-89
2022/07/28 06:25:20;;;;;;;;;3.50;3.25;;;;;21.20;39.93;101295.19;2401426;28;45255;-87
2022/07/28 06:26:30;;;;;;;;;6.00;5.00;;;;;21.19;39.77;101302.34;2397277;28;46974;-86
2022/07/28 06:27:41;;;;;;;;;5.25;3.25;;;;;21.17;40.21;101296.25;2387226;28;45338;-87
2022/07/28 06:28:51;;;;;;;;;5.00;4.50;;;;;21.16;40.70;101291.03;2386623;28;47677;-87
2022/07/28 06:30:02;;;;;;;;;3.50;3.00;;;;;21.19;40.39;101293.47;2386430;28;45504;-87
2022/07/28 06:31:13;;;;;;;;;7.00;6.00;;;;;21.20;40.04;101293.38;2390716;28;47947;-86
2022/07/28 06:32:23;;;;;;;;;4.00;3.00;;;;;21.24;39.91;101296.66;2381898;28;45252;-87
2022/07/28 06:33:34;;;;;;;;;5.25;5.00;;;;;21.27;40.29;101293.78;2389824;28;46498;-86
2022/07/28 06:34:44;;;;;;;;;4.00;3.25;;;;;21.30;40.77;101296.25;2388407;28;45266;-87
2022/07/28 06:35:55;;;;;;;;;5.00;3.50;;;;;21.34;40.60;101299.56;2393597;28;46953;-87
2022/07/28 06:37:05;;;;;;;;;4.75;4.00;;;;;21.36;40.38;101306.50;2391210;28;45275;-88
2022/07/28 06:38:16;;;;;;;;;4.50;3.00;;;;;21.40;40.49;101300.94;2392456;28;45582;-87
2022/07/28 06:39:26;;;;;;;;;4.00;4.00;;;;;21.42;40.12;101304.38;2395445;28;45483;-87
2022/07/28 06:40:36;;;;;;;;;5.25;4.00;;;;;21.44;39.78;101300.63;2386700;28;47089;-88
2022/07/28 06:41:47;;;;;;;;;6.00;5.00;;;;;21.41;39.80;101297.31;2396788;28;44791;-88
2022/07/28 06:42:57;;;;;;;;;5.00;5.00;;;;;21.39;39.92;101294.75;2393572;28;47237;-88
2022/07/28 06:44:08;;;;;;;;;5.00;4.00;;;;;21.41;40.25;101295.47;2396497;28;45297;-87
2022/07/28 06:45:19;;;;;;;;;4.00;4.00;;;;;21.42;40.57;101297.22;2403208;28;47108;-87
2022/07/28 06:46:30;;;;;;;;;5.50;4.00;;;;;21.43;40.01;101295.41;2401108;28;45461;-87
2022/07/28 06:47:40;;;;;;;;;4.50;4.00;;;;;21.45;40.12;101293.47;2402028;28;46069;-87
2022/07/28 06:48:51;;;;;;;;;5.25;5.25;;;;;21.46;39.77;101295.16;2410367;28;45213;-87
2022/07/28 06:50:03;;;;;;;;;5.50;5.00;;;;;21.46;40.06;101298.69;2398730;28;45441;-88
2022/07/28 06:51:17;;;;;;;;;6.50;5.00;;;;;21.48;39.77;101301.28;2403720;28;45269;-88
2022/07/28 06:52:28;;;;;;;;;5.00;4.00;;;;;21.49;39.53;101302.97;2387386;28;47218;-87
2022/07/28 06:53:38;;;;;;;;;6.25;5.00;;;;;21.48;39.65;101299.44;2392632;28;45492;-87
2022/07/28 06:54:50;;;;;;;;;4.00;4.00;;;;;21.50;40.05;101301.16;2392932;28;47355;-88
2022/07/28 06:56:02;;;;;;;;;3.50;3.50;;;;;21.52;39.97;101305.44;2395919;28;45166;-87
2022/07/28 06:57:12;;;;;;;;;5.00;3.75;;;;;21.52;40.13;101300.09;2393244;28;47070;-89
2022/07/28 06:58:23;;;;;;;;;3.75;3.75;;;;;21.52;39.94;101300.09;2387202;28;45264;-87
2022/07/28 06:59:33;;;;;;;;;5.00;4.50;;;;;21.51;40.13;101303.72;2391512;28;47325;-87
2022/07/28 07:00:43;;;;;;;;;4.50;4.25;;;;;21.56;40.82;101303.38;2385047;28;44827;-88
2022/07/28 07:01:54;;;;;;;;;4.50;3.25;;;;;21.61;40.19;101303.06;2383662;28;47371;-87
2022/07/28 07:03:04;;;;;;;;;4.25;4.00;;;;;21.62;40.20;101296.75;2387475;28;45288;-86
2022/07/28 07:04:14;;;;;;;;;5.00;4.00;;;;;21.66;39.72;101303.56;2390506;28;47081;-87
2022/07/28 07:05:28;;;;;;;;;4.50;4.50;;;;;21.67;39.95;101299.94;2396781;28;45583;-88
2022/07/28 07:06:38;;;;;;;;;7.25;5.75;;;;;21.67;39.49;101298.13;2392401;28;47990;-87
2022/07/28 07:07:48;;;;;;;;;4.50;3.75;;;;;21.67;39.86;101302.63;2395900;28;45318;-87
2022/07/28 07:08:59;;;;;;;;;6.75;5.00;;;;;21.67;39.40;101302.63;2400454;28;47137;-88
2022/07/28 07:10:10;;;;;;;;;5.75;4.75;;;;;21.67;40.05;101305.31;2386801;28;45358;-87
2022/07/28 07:11:20;;;;;;;;;4.50;4.00;;;;;21.67;39.80;101303.50;2396385;28;45294;-86
2022/07/28 07:12:34;;;;;;;;;6.00;5.75;;;;;21.71;39.93;101301.44;2400838;28;45258;-88
2022/07/28 07:13:45;;;;;;;;;6.75;5.25;;;;;21.72;39.55;101305.81;2401526;28;46523;-87
2022/07/28 07:14:55;;;;;;;;;3.00;3.00;;;;;21.74;39.85;101311.91;2393840;28;44627;-87
2022/07/28 07:16:05;;;;;;;;;5.00;5.00;;;;;21.75;40.00;101300.25;2390936;28;47546;-88
2022/07/28 07:17:16;;;;;;;;;5.25;5.25;;;;;21.75;39.92;101302.94;2385973;28;45332;-88
2022/07/28 07:18:26;;;;;;;;;6.25;5.25;;;;;21.77;39.77;101303.69;2386905;28;47088;-87
2022/07/28 07:19:36;;;;;;;;;5.25;4.75;;;;;21.74;39.54;101306.56;2401126;28;44711;-88
2022/07/28 07:20:47;;;;;;;;;6.00;4.25;;;;;21.73;39.26;101302.16;2396495;28;48117;-89
2022/07/28 07:21:58;;;;;;;;;5.50;5.00;;;;;21.72;39.43;101307.66;2397850;28;45358;-87
2022/07/28 07:23:08;;;;;;;;;6.00;6.00;;;;;21.70;39.27;101302.41;2400374;28;46174;-88
2022/07/28 07:24:18;;;;;;;;;4.50;4.50;;;;;21.75;40.25;101312.78;2390469;28;45319;-87
2022/07/28 07:25:29;;;;;;;;;4.00;4.00;;;;;21.76;40.69;101311.78;2394121;28;46279;-87
2022/07/28 07:26:39;;;;;;;;;4.00;4.00;;;;;21.79;39.93;101312.44;2396691;28;45407;-87
2022/07/28 07:27:50;;;;;;;;;5.25;5.00;;;;;21.80;40.03;101311.47;2400902;28;46476;-88
2022/07/28 07:29:00;;;;;;;;;3.25;3.25;;;;;21.84;40.07;101306.75;2391530;28;44869;-87
2022/07/28 07:30:11;;;;;;;;;4.50;3.50;;;;;21.89;39.31;101311.81;2395430;28;45437;-87
2022/07/28 07:31:21;;;;;;;;;5.25;4.50;;;;;21.89;39.49;101306.44;2395664;28;44557;-88
2022/07/28 07:32:32;;;;;;;;;6.50;4.00;;;;;21.92;39.58;101301.75;2395592;28;47502;-87
2022/07/28 07:33:43;;;;;;;;;5.50;4.00;;;;;21.92;39.48;101307.09;2384332;28;45258;-88
2022/07/28 07:34:53;;;;;;;;;5.00;5.00;;;;;21.97;39.38;101308.56;2389244;28;46865;-87
2022/07/28 07:36:04;;;;;;;;;4.25;4.25;;;;;21.99;39.08;101312.84;2402450;28;45246;-88
2022/07/28 07:37:16;;;;;;;;;6.00;5.00;;;;;22.04;39.28;101309.84;2398640;28;45516;-88
2022/07/28 07:38:26;;;;;;;;;6.75;5.50;;;;;22.07;39.19;101308.75;2401470;28;45217;-87
2022/07/28 07:39:36;;;;;;;;;4.50;3.50;;;;;22.11;39.25;101304.88;2396080;28;46918;-88
2022/07/28 07:40:47;;;;;;;;;4.75;4.75;;;;;22.15;39.14;101309.03;2403094;28;45325;-88
2022/07/28 07:41:57;;;;;;;;;4.00;4.00;;;;;22.18;39.83;101299.91;2402931;28;48248;-88
2022/07/28 07:43:07;;;;;;;;;4.25;4.25;;;;;22.20;39.42;101306.88;2391756;28;45408;-87
2022/07/28 07:44:18;;;;;;;;;5.00;4.25;;;;;22.26;39.23;101302.91;2386723;28;46987;-89
2022/07/28 07:45:28;;;;;;;;;6.75;6.75;;;;;22.27;38.48;101307.28;2388988;28;44797;-87
2022/07/28 07:46:38;;;;;;;;;6.50;4.25;;;;;22.26;38.64;101303.75;2381058;28;48079;-87
2022/07/28 07:47:49;;;;;;;;;4.50;3.75;;;;;22.26;38.97;101306.44;2392360;28;45339;-87
2022/07/28 07:48:59;;;;;;;;;5.50;5.50;;;;;22.26;39.26;101309.09;2394922;28;48192;-87
2022/07/28 07:50:10;;;;;;;;;6.00;5.50;;;;;22.30;39.00;101308.88;2393320;28;45343;-87
2022/07/28 07:51:20;;;;;;;;;7.75;4.25;;;;;22.31;38.84;101307.91;2402282;28;47300;-86
2022/07/28 07:52:31;;;;;;;;;5.75;4.25;;;;;22.33;39.40;101303.28;2400174;28;45352;-87
2022/07/28 07:53:41;;;;;;;;;6.25;5.25;;;;;22.37;39.11;101302.09;2386697;28;47118;-88
2022/07/28 07:54:51;;;;;;;;;5.75;5.75;;;;;22.39;38.73;101304.66;2393693;28;45239;-87
2022/07/28 07:56:02;;;;;;;;;4.00;4.00;;;;;22.39;38.70;101307.34;2394295;28;45324;-86
2022/07/28 07:57:13;;;;;;;;;6.00;6.00;;;;;22.39;38.72;101308.19;2394469;28;45146;-86
2022/07/28 07:58:23;;;;;;;;;5.50;4.00;;;;;22.42;39.01;101302.59;2402715;28;47933;-88
2022/07/28 07:59:33;;;;;;;;;6.00;5.25;;;;;22.46;39.41;101314.81;2400096;28;45226;-88
2022/07/28 08:00:44;;;;;;;;;5.50;5.25;;;;;22.48;38.98;101307.50;2395999;28;45197;-87
2022/07/28 08:01:54;;;;;;;;;5.00;5.00;;;;;22.52;39.04;101307.28;2402941;28;45227;-87
2022/07/28 08:03:05;;;;;;;;;5.00;5.00;;;;;22.51;38.40;101300.19;2393167;28;47126;-87
2022/07/28 08:04:16;;;;;;;;;6.00;5.00;;;;;22.49;38.58;101301.16;2386442;28;45293;-87
2022/07/28 08:05:26;;;;;;;;;7.25;4.00;;;;;22.51;39.05;101302.88;2393196;28;48173;-87
2022/07/28 08:06:37;;;;;;;;;8.00;7.00;;;;;22.54;38.73;101297.28;2386124;28;45490;-87
2022/07/28 08:07:47;;;;;;;;;5.25;4.00;;;;;22.57;38.77;101300.56;2390741;28;47321;-88
2022/07/28 08:08:57;;;;;;;;;9.75;6.00;;;;;22.58;38.55;101293.41;2401701;28;45434;-89
2022/07/28 08:10:08;;;;;;;;;6.00;5.00;;;;;22.62;38.91;101297.56;2390710;28;48145;-87
2022/07/28 08:11:19;;;;;;;;;5.00;5.00;;;;;22.65;38.43;101297.31;2393802;28;45272;-87
2022/07/28 08:12:29;;;;;;;;;6.50;5.25;;;;;22.68;38.29;101297.09;2400107;28;45342;-87
2022/07/28 08:13:39;;;;;;;;;5.50;4.25;;;;;22.68;38.77;101299.78;2395479;28;45302;-88
2022/07/28 08:14:50;;;;;;;;;4.75;4.75;;;;;22.70;38.48;101297.88;2392743;28;47991;-89
2022/07/28 08:16:01;;;;;;;;;3.00;2.00;;;;;22.72;38.57;101296.91;2384128;28;44673;-88
2022/07/28 08:17:12;;;;;;;;;7.00;5.75;;;;;22.74;38.25;101301.19;2382845;28;48099;-87
2022/07/28 08:18:22;;;;;;;;;6.25;6.25;;;;;22.75;37.95;101296.66;2391568;28;45191;-87
2022/07/28 08:19:33;;;;;;;;;6.00;5.00;;;;;22.76;38.40;101301.03;2402477;28;48085;-88
2022/07/28 08:20:43;;;;;;;;;5.75;5.75;;;;;22.77;38.44;101292.03;2403027;28;44615;-88
2022/07/28 08:21:54;;;;;;;;;7.00;6.00;;;;;22.77;38.37;101300.06;2402153;28;45193;-87
2022/07/28 08:23:04;;;;;;;;;7.25;5.75;;;;;22.75;38.32;101286.78;2401026;28;44785;-87
2022/07/28 08:24:15;;;;;;;;;8.00;6.25;;;;;22.77;38.64;101300.06;2399054;28;48477;-88
2022/07/28 08:25:25;;;;;;;;;6.25;6.25;;;;;22.79;38.26;101292.78;2393384;28;45179;-86
2022/07/28 08:26:36;;;;;;;;;7.00;6.00;;;;;22.83;38.41;101286.22;2400891;28;47429;-87
2022/07/28 08:27:47;;;;;;;;;5.00;5.00;;;;;22.84;38.69;101287.91;2393716;28;44865;-87
2022/07/28 08:28:57;;;;;;;;;6.25;5.00;;;;;22.89;38.99;101283.03;2395016;28;46609;-85
2022/07/28 08:30:08;;;;;;;;;5.00;3.25;;;;;22.92;38.66;101277.44;2392052;28;45421;-86
2022/07/28 08:31:20;;;;;;;;;5.00;5.00;;;;;22.95;38.63;101287.06;2400369;28;45402;-86
2022/07/28 08:32:31;;;;;;;;;5.75;5.25;;;;;22.98;39.23;101289.53;2401224;28;45391;-88
2022/07/28 08:33:44;;;;;;;;;6.75;6.75;;;;;23.00;37.94;101279.53;2392938;28;48054;-85
2022/07/28 08:34:55;;;;;;;;;4.75;4.25;;;;;23.02;37.88;101282.09;2389209;28;45248;-87
2022/07/28 08:36:05;;;;;;;;;7.00;6.00;;;;;23.02;38.65;101277.59;2385660;28;47021;-87
2022/07/28 08:37:15;;;;;;;;;6.00;6.00;;;;;23.08;38.89;101286.13;2395571;28;44886;-88
2022/07/28 08:38:26;;;;;;;;;7.25;5.50;;;;;23.10;38.33;101285.03;2397385;28;45642;-87
2022/07/28 08:39:36;;;;;;;;;5.00;5.00;;;;;23.14;38.29;101285.63;2402779;28;45299;-87
2022/07/28 08:40:48;;;;;;;;;7.00;5.75;;;;;23.15;37.44;101282.00;2393484;28;45362;-88
2022/07/28 08:41:59;;;;;;;;;5.00;5.00;;;;;23.17;38.72;101290.75;2383088;28;44697;-87
2022/07/28 08:43:21;;;;;;;;;6.50;6.00;;;;;23.19;38.79;101278.09;2385328;28;47261;-88
2022/07/28 08:44:50;;;;;;;;;4.00;4.00;;;;;23.23;38.94;101278.72;2388578;28;45463;-87
2022/07/28 08:46:03;;;;;;;;;6.75;5.25;;;;;23.28;37.94;101284.56;2392318;28;47492;-88
2022/07/28 08:47:15;;;;;;;;;6.25;5.50;;;;;23.31;38.13;101283.47;2383645;28;45191;-89
2022/07/28 08:48:30;;;;;;;;;6.00;6.00;;;;;23.35;38.41;101282.25;2387965;28;46997;-88
2022/07/28 08:49:41;;;;;;;;;5.50;5.50;;;;;23.38;38.10;101288.19;2394481;28;45423;-88
2022/07/28 08:50:54;;;;;;;;;5.00;5.00;;;;;23.40;37.98;101285.41;2397555;28;46197;-89
2022/07/28 08:52:05;;;;;;;;;5.75;4.00;;;;;23.43;38.07;101289.69;2391203;28;45544;-88
2022/07/28 08:53:19;;;;;;;;;5.25;5.25;;;;;23.47;37.83;101286.63;2395003;28;46839;-88
2022/07/28 08:54:30;;;;;;;;;6.00;3.25;;;;;23.50;37.83;101285.56;2401064;28;45297;-89
2022/07/28 08:55:42;;;;;;;;;6.50;5.75;;;;;23.55;37.49;101287.88;2385151;28;47970;-88
2022/07/28 08:56:54;;;;;;;;;7.00;4.50;;;;;23.56;37.54;101285.06;2389109;28;45524;-88
2022/07/28 08:58:05;;;;;;;;;6.25;5.00;;;;;23.59;37.74;101286.66;2391435;28;45472;-88
2022/07/28 08:59:16;;;;;;;;;6.50;6.00;;;;;23.60;38.13;101283.00;2394077;28;45221;-88
2022/07/28 09:00:26;;;;;;;;;5.50;4.50;;;;;23.64;38.38;101280.91;2400845;28;45471;-90
2022/07/28 09:01:37;;;;;;;;;5.75;4.00;;;;;23.67;38.06;101280.66;2396936;28;45369;-88
2022/07/28 09:02:49;;;;;;;;;6.50;6.00;;;;;23.71;37.44;101282.97;2393290;28;45597;-89
2022/07/28 09:03:59;;;;;;;;;4.25;4.25;;;;;23.75;37.56;101278.22;2384494;28;45333;-88
2022/07/28 09:05:10;;;;;;;;;7.00;6.25;;;;;23.77;37.14;101278.94;2394015;28;48303;-89
2022/07/28 09:06:21;;;;;;;;;6.50;5.50;;;;;23.79;37.82;101279.66;2396930;28;45422;-88
2022/07/28 09:07:32;;;;;;;;;6.00;5.50;;;;;23.84;37.42;101281.97;2395104;28;45648;-88
2022/07/28 09:08:42;;;;;;;;;4.75;4.75;;;;;23.87;37.77;101283.56;2395951;28;45415;-89
2022/07/28 09:09:54;;;;;;;;;4.75;4.75;;;;;23.90;37.97;101281.47;2391585;28;46550;-88
2022/07/28 09:11:06;;;;;;;;;8.50;5.50;;;;;23.92;37.06;101274.16;2395205;28;44669;-88
2022/07/28 09:12:17;;;;;;;;;5.50;5.50;;;;;23.95;37.32;101281.13;2383671;28;48018;-87
2022/07/28 09:13:27;;;;;;;;;8.00;5.00;;;;;23.97;36.99;101275.59;2385651;28;45316;-87
2022/07/28 09:14:38;;;;;;;;;7.75;6.00;;;;;23.98;37.18;101275.47;2392391;28;47076;-87
2022/07/28 09:15:48;;;;;;;;;5.50;5.00;;;;;24.00;36.76;101281.56;2394143;28;45370;-88
2022/07/28 09:17:00;;;;;;;;;6.00;6.00;;;;;24.02;37.14;101273.41;2394126;28;46923;-88
2022/07/28 09:18:12;;;;;;;;;6.75;6.50;;;;;24.05;37.16;101273.97;2387250;28;46135;-88
2022/07/28 09:19:22;;;;;;;;;5.25;5.25;;;;;24.10;37.45;101275.44;2381895;28;47181;-88
2022/07/28 09:20:34;;;;;;;;;4.50;4.50;;;;;24.13;37.31;101269.81;2392371;28;45241;-87
2022/07/28 09:21:45;;;;;;;;;5.50;5.50;;;;;24.19;37.33;101279.19;2389000;28;47351;-88
2022/07/28 09:23:00;;;;;;;;;9.75;5.00;;;;;24.22;36.47;101277.13;2386826;28;44735;-88
2022/07/28 09:24:33;;;;;;;;;5.00;5.00;;;;;24.25;36.15;101276.88;2390425;28;48166;-86
2022/07/28 09:25:44;;;;;;;;;5.50;5.25;;;;;24.28;36.59;101278.44;2397594;28;45173;-87
2022/07/28 09:27:06;;;;;;;;;6.00;6.00;;;;;24.31;36.34;101280.03;2400931;28;47173;-87
2022/07/28 09:28:17;;;;;;;;;5.75;5.00;;;;;24.33;36.34;101270.88;2402136;28;45458;-87
2022/07/28 09:29:28;;;;;;;;;7.50;5.25;;;;;24.36;35.96;101280.50;2402434;28;45635;-87
2022/07/28 09:30:42;;;;;;;;;7.00;6.00;;;;;24.36;36.26;101272.44;2392670;28;45248;-88
2022/07/28 09:31:53;;;;;;;;;5.50;5.50;;;;;24.38;36.23;101273.16;2386346;28;48213;-87
2022/07/28 09:33:15;;;;;;;;;7.25;6.00;;;;;24.40;35.75;101271.19;2395664;28;45195;-88
2022/07/28 09:34:26;;;;;;;;;7.50;7.00;;;;;24.44;35.88;101277.16;2402289;28;46302;-87
2022/07/28 09:35:45;;;;;;;;;9.00;7.25;;;;;24.44;35.64;101272.66;2391713;28;45824;-87
2022/07/28 09:36:55;;;;;;;;;3.25;3.25;;;;;24.47;35.56;101268.88;2388145;28;47470;-87
2022/07/28 09:38:06;;;;;;;;;7.75;5.25;;;;;24.52;35.78;101268.47;2388262;28;45433;-88
2022/07/28 09:39:28;;;;;;;;;7.50;7.00;;;;;24.56;36.02;101265.38;2382532;28;47696;-87
2022/07/28 09:40:40;;;;;;;;;7.25;6.00;;;;;24.59;35.97;101269.66;2387703;28;44649;-88
2022/07/28 09:41:54;;;;;;;;;7.50;4.25;;;;;24.64;35.33;101267.44;2392629;28;45450;-87
2022/07/28 09:43:05;;;;;;;;;5.75;5.50;;;;;24.67;35.58;101261.78;2392838;28;44773;-86
2022/07/28 09:44:20;;;;;;;;;6.00;4.00;;;;;24.71;35.62;101251.63;2393569;28;46172;-87
2022/07/28 09:45:30;;;;;;;;;3.75;3.75;;;;;24.72;34.38;101262.22;2383348;28;45341;-88
2022/07/28 09:46:40;;;;;;;;;6.00;5.25;;;;;24.73;34.98;101261.25;2382542;28;47179;-87
2022/07/28 09:48:11;;;;;;;;;5.25;5.25;;;;;24.76;34.79;101259.28;2386077;28;45383;-87
2022/07/28 09:49:39;;;;;;;;;5.75;5.00;;;;;24.77;35.19;101252.94;2391686;28;47953;-88
2022/07/28 09:50:49;;;;;;;;;4.75;4.75;;;;;24.80;35.51;101255.34;2384606;28;45596;-88
2022/07/28 09:52:02;;;;;;;;;4.50;4.00;;;;;24.82;35.18;101248.84;2394068;28;46507;-88
2022/07/28 09:53:21;;;;;;;;;7.25;6.00;;;;;24.91;35.29;101259.81;2393840;28;45314;-89
2022/07/28 09:54:32;;;;;;;;;5.50;5.50;;;;;24.94;35.63;101249.63;2390528;28;47206;-88
2022/07/28 09:55:54;;;;;;;;;6.50;5.00;;;;;24.97;35.49;101248.50;2390309;28;44636;-88
2022/07/28 09:57:11;;;;;;;;;4.00;4.00;;;;;25.02;35.44;101250.81;2393843;28;47375;-88
2022/07/28 09:58:23;;;;;;;;;6.25;5.00;;;;;25.03;35.27;101247.16;2391550;28;44648;-88
2022/07/28 09:59:43;;;;;;;;;6.25;6.25;;;;;25.06;35.14;101245.03;2394586;28;46875;-88
2022/07/28 10:01:11;;;;;;;;;6.25;5.00;;;;;25.06;35.17;101242.34;2391287;28;45312;-89
2022/07/28 10:02:32;;;;;;;;;5.75;5.00;;;;;25.09;34.69;101245.78;2385955;28;47154;-89
2022/07/28 10:03:49;;;;;;;;;7.00;5.50;;;;;25.12;34.54;101246.34;2393109;28;45211;-88
2022/07/28 10:05:07;;;;;;;;;4.50;3.75;;;;;25.12;34.54;101251.72;2385464;28;47051;-89
2022/07/28 10:06:29;;;;;;;;;6.00;6.00;;;;;25.16;34.60;101242.38;2389637;28;45437;-90
2022/07/28 10:07:48;;;;;;;;;7.00;6.00;;;;;25.20;34.59;101242.97;2403557;28;48384;-89
2022/07/28 10:09:01;;;;;;;;;5.75;2.00;;;;;25.24;34.74;101251.63;2393886;28;45348;-89
2022/07/28 10:10:11;;;;;;;;;5.00;5.00;;;;;25.25;34.96;101245.25;2395314;28;47339;-88
2022/07/28 10:11:25;;;;;;;;;4.50;4.50;;;;;25.26;34.84;101245.13;2400849;28;45491;-88
2022/07/28 10:12:37;;;;;;;;;5.00;5.00;;;;;25.30;34.65;101251.09;2395091;28;46390;-89
2022/07/28 10:13:56;;;;;;;;;4.00;4.00;;;;;25.32;34.09;101245.56;2399895;28;44735;-88
2022/07/28 10:16:51;;;;;;;;;3.50;3.50;;;;;25.38;33.90;101248.59;2395884;28;44745;-89
2022/07/28 10:18:03;;;;;;;;;4.25;4.25;;;;;25.39;33.92;101236.81;2402664;28;46177;-89
2022/07/28 10:19:14;;;;;;;;;3.00;3.00;;;;;25.40;33.55;101234.97;2391382;28;45271;-89
2022/07/28 10:20:26;;;;;;;;;4.00;4.00;;;;;25.42;33.13;101240.22;2378016;28;46920;-89
2022/07/28 10:21:43;;;;;;;;;3.00;3.00;;;;;25.45;33.21;101246.19;2386254;28;45401;-90
2022/07/28 10:23:03;;;;;;;;;2.25;1.75;;;;;25.48;33.93;101242.38;2388347;28;47561;-89
2022/07/28 10:24:21;;;;;;;;;3.50;3.00;;;;;25.52;33.48;101241.09;2398169;28;45250;-89
2022/07/28 10:25:34;;;;;;;;;4.00;4.00;;;;;25.56;32.66;101237.13;2392641;28;48249;-89
2022/07/28 10:26:46;;;;;;;;;4.50;2.75;;;;;25.59;32.55;101233.31;2397302;28;45270;-88
2022/07/28 10:27:59;;;;;;;;;2.50;2.50;;;;;25.61;32.46;101234.88;2403151;28;48086;-89
2022/07/28 10:29:15;;;;;;;;;3.00;3.00;;;;;25.66;32.17;101244.38;2387999;28;45255;-89
2022/07/28 10:30:30;;;;;;;;;4.50;3.75;;;;;25.69;31.82;101236.88;2385556;28;47794;-88
2022/07/28 10:31:53;;;;;;;;;4.00;3.00;;;;;25.71;31.74;101234.91;2383218;28;45484;-89
2022/07/28 10:33:12;;;;;;;;;2.75;2.75;;;;;25.70;32.92;101230.53;2389334;28;46568;-88
2022/07/28 10:34:49;;;;;;;;;3.25;3.25;;;;;25.77;32.38;101238.91;2399339;28;45656;-88
2022/07/28 10:36:01;;;;;;;;;2.25;2.00;;;;;25.81;32.61;101232.25;2391439;28;45635;-88
2022/07/28 10:37:17;;;;;;;;;3.75;3.25;;;;;25.88;33.22;101237.09;2394655;28;44669;-88
2022/07/28 10:38:34;;;;;;;;;3.50;2.00;;;;;25.91;32.70;101234.97;2402965;28;45624;-88
2022/07/28 10:39:54;;;;;;;;;5.50;2.25;;;;;25.95;30.91;101235.53;2393314;28;45863;-89
2022/07/28 10:41:08;;;;;;;;;4.25;3.00;;;;;25.99;31.38;101244.19;2388271;28;46295;-89
2022/07/28 10:42:19;;;;;;;;;3.75;2.50;;;;;26.00;31.91;101232.44;2394204;28;45190;-89
2022/07/28 10:43:30;;;;;;;;;3.00;3.00;;;;;26.03;31.83;101229.44;2392328;28;47330;-89
2022/07/28 10:44:42;;;;;;;;;3.00;3.00;;;;;26.05;31.41;101233.69;2386378;28;45274;-88
2022/07/28 10:45:53;;;;;;;;;2.25;2.25;;;;;26.10;31.33;101235.13;2389801;28;45454;-88
2022/07/28 10:47:08;;;;;;;;;3.00;3.00;;;;;26.12;31.72;101235.81;2402936;28;45177;-88
2022/07/28 10:48:20;;;;;;;;;5.50;3.00;;;;;26.16;32.38;101234.53;2393570;28;47288;-89
2022/07/28 10:49:30;;;;;;;;;3.00;3.00;;;;;26.20;32.33;101237.81;2399154;28;45419;-88
2022/07/28 10:50:42;;;;;;;;;4.00;2.00;;;;;26.21;32.57;101221.50;2403729;28;45363;-88
2022/07/28 10:51:52;;;;;;;;;2.50;1.75;;;;;26.26;31.36;101230.00;2393386;28;45191;-88
2022/07/28 10:53:06;;;;;;;;;4.00;2.75;;;;;26.27;31.29;101231.69;2385603;28;48302;-88
2022/07/28 10:54:25;;;;;;;;;3.00;3.00;;;;;26.29;31.55;101228.88;2390984;28;45192;-89
2022/07/28 10:55:59;;;;;;;;;1.75;1.75;;;;;26.29;31.26;101232.41;2402693;28;47183;-88
2022/07/28 10:57:11;;;;;;;;;2.75;2.75;;;;;26.29;31.52;101234.25;2395267;28;44779;-88
2022/07/28 10:59:02;;;;;;;;;3.50;3.00;;;;;26.31;31.09;101226.88;2399963;28;45502;-88
2022/07/28 11:00:16;;;;;;;;;3.00;3.00;;;;;26.34;30.43;101244.59;2400293;28;45229;-88
2022/07/28 11:01:35;;;;;;;;;1.00;1.00;;;;;26.32;30.79;101225.91;2403675;28;45624;-88
2022/07/28 11:02:51;;;;;;;;;4.25;3.25;;;;;26.33;31.33;101230.28;2401241;28;45352;-89
2022/07/28 11:04:01;;;;;;;;;3.00;2.75;;;;;26.37;30.86;101228.16;2395467;28;48425;-90
2022/07/28 11:05:38;;;;;;;;;5.50;3.25;;;;;26.43;31.20;101224.06;2387789;28;45195;-90
2022/07/28 11:06:48;;;;;;;;;3.00;3.00;;;;;26.44;31.31;101223.94;2384365;28;47600;-89
2022/07/28 11:08:02;;;;;;;;;4.00;2.25;;;;;26.44;30.47;101226.63;2386890;28;45298;-90
2022/07/28 11:09:15;;;;;;;;;2.25;2.25;;;;;26.46;31.26;101223.75;2396848;28;46491;-89
2022/07/28 11:10:28;;;;;;;;;2.25;2.25;;;;;26.46;31.10;101224.63;2396293;28;45247;-89
2022/07/28 11:11:48;;;;;;;;;3.00;3.00;;;;;26.46;30.27;101221.94;2398147;28;45731;-89
2022/07/28 11:12:59;;;;;;;;;2.00;2.00;;;;;26.48;30.89;101224.47;2396068;28;45329;-90
2022/07/28 11:14:25;;;;;;;;;0.00;0.00;;;;;26.50;31.26;101220.63;2394788;28;46337;-88
2022/07/28 11:15:36;;;;;;;;;2.00;2.00;;;;;26.51;30.94;101226.88;2403692;28;44612;-90
2022/07/28 11:16:48;;;;;;;;;3.25;3.25;;;;;26.51;30.93;101218.78;2396917;28;45329;-89
2022/07/28 11:18:07;;;;;;;;;2.00;2.00;;;;;26.52;30.68;101217.81;2395765;28;45388;-90
2022/07/28 11:19:17;;;;;;;;;2.00;2.00;;;;;26.55;31.29;101222.03;2394912;28;45340;-89
2022/07/28 11:20:49;;;;;;;;;3.75;3.50;;;;;26.56;31.62;101219.22;2394589;28;45313;-88
2022/07/28 11:23:58;;;;;;;;;1.50;1.50;;;;;26.54;30.86;101226.59;2398204;28;45424;-89
2022/07/28 11:25:08;;;;;;;;;4.00;4.00;;;;;26.51;31.55;101222.34;2363286;29;47867;-90
2022/07/28 11:26:22;;;;;;;;;2.75;2.75;;;;;26.47;31.98;101220.91;2380255;28;45451;-88
2022/07/28 11:27:53;;;;;;;;;2.00;2.00;;;;;26.46;31.56;101219.22;2389578;28;45510;-89
2022/07/28 11:29:07;;;;;;;;;3.00;3.00;;;;;26.46;31.42;101221.06;2401340;28;45281;-89
2022/07/28 11:30:35;;;;;;;;;2.00;2.00;;;;;26.47;31.97;101212.00;2399223;28;45592;-89
2022/07/28 11:31:45;;;;;;;;;3.75;3.00;;;;;26.48;32.01;101217.25;2393925;28;45243;-89
2022/07/28 11:32:56;;;;;;;;;2.50;2.50;;;;;26.48;31.57;101217.25;2386350;28;48195;-88
2022/07/28 11:34:07;;;;;;;;;4.25;3.50;;;;;26.48;31.25;101209.16;2396407;28;45407;-89